Hanalei, HI (96714)

4:37 AM HST on February 06, 2016 (GMT -1000)
North Shore of Kauai | | Change Station
CLOSE
Current Station
Personal Weather Station
Location: Princeville, HI
Elevation: 200 ft
Nearby Weather Stations
Active Advisory: Wind Advisory Active Notice: Record Report

Elev 200 ft 22.23 °N, 159.48 °W | Updated 1 second ago

Overcast
Overcast
69.6 °F
Feels Like 69.6 °F
N
1.3
Wind Variable Wind from SSW
Gusts 2.5 mph

Today
High -- | Low -- °F
--% Chance of Precip.
Yesterday
High -- | Low -- °F
Precip. -- in
Pressure 29.98 in
Visibility 10.0 miles
Clouds Overcast 5500 ft
Dew Point 62 °F
Humidity 76%
Rainfall 0.00 in
Snow Depth Not available.
7:14 AM 6:29 PM
Waning Crescent, 5% visible
METAR PHLI 061353Z 26007KT 10SM OVC055 20/17 A2999 RMK AO2 SLP152 T02000167
Pressure 29.98 in
Visibility 10.0 miles
Clouds Overcast 5500 ft
Dew Point 62 °F
Humidity 76%
Rainfall 0.00 in
Snow Depth Not available.
7:14 AM 6:29 PM
Waning Crescent, 5% visible
METAR PHLI 061353Z 26007KT 10SM OVC055 20/17 A2999 RMK AO2 SLP152 T02000167

10-Day Weather Forecast

Almanac

Astronomy

Feb. 06, 2016 Rise Set
Actual Time
Civil Twilight
Nautical Twilight
Astronomical Twilight
Moon
Length of Visible Light
Length of Day
Tomorrow will be .
, % of the Moon is Illuminated

Today's Extremes

State Highs State Lows

Community

WunderPhotos

Upload Photos

1,890,983 photos uploaded!

WunderBlog® & News

Nearby

Air Quality

  Air Quality AQ Index Pollutant
Not available.

Snow Depth

Station Depth Elevation

Earthquake Activity

City Distance Mag. Time & Date
Minimum magnitude displayed is 2.5.

Coastal Water Temperatures

Place Temperature

Stations

Nearby Weather Stations

Station Location Temp. Windchill Dew Point Humidity Wind Precip. Elev Updated Type
                   

Watches & Warnings

Wind Advisory
Issued: 3:32 AM HST Feb. 6, 2016 – National Weather Service

... Wind Advisory in effect from 2 PM this afternoon to 6 PM HST
Sunday...

The National Weather Service in Honolulu has issued a Wind
Advisory... which is in effect from 2 PM this afternoon to 6 PM
HST Sunday.

* Timing... late this afternoon through Sunday.

* Winds... north up to 30 mph with gusts up to 55 mph. Winds will
be strongest downwind of higher terrain and in north facing
valleys.

* Impacts... motorists... especially those in high profile
vehicles... are urged to drive with extreme caution. Lightweight
outdoor objects may be blown around... and should be secured
before winds increase.

Precautionary/preparedness actions...

A Wind Advisory means that sustained winds of at least 30 mph...
or gusts of at least 50 mph... are expected. Motorists should use
extra caution.